Flight Track Log - Related Links

Times and Time Zones

All times are in EDT time to prevent confusion due to time zone crossing. See the SWA2697 flight status page for this flight to view local times or setup timezone preferences in your user account.

Time Position Orientation Groundspeed Altitude Reporting Facility
EDT Latitude Longitude Course Direction KTS MPH feet Rate Location/Type
Tue 01:01:42 PM 34.0567 -117.6869 268° West 204 235 3,800  Level Los Angeles Center
Tue 01:02:44 PM 34.0772 -117.7869 284° West 268 308 7,000 2,256 Climbing Los Angeles Center
Tue 01:03:47 PM 34.1294 -117.8625 310° West 294 338 8,500 2,784 Climbing Los Angeles Center
Tue 01:04:49 PM 34.1808 -117.9381 309° West 295 339 12,800 3,581 Climbing Los Angeles Center
Tue 01:05:51 PM 34.2414 -118.0253 310° West 342 394 15,900 3,145 Climbing Los Angeles Center
Tue 01:06:53 PM 34.3039 -118.1172 309° West 355 409 19,300 3,339 Climbing Los Angeles Center
Tue 01:07:55 PM 34.3828 -118.2350 309° West 375 432 22,800 2,758 Climbing Los Angeles Center
Tue 01:08:57 PM 34.4508 -118.3361 309° West 387 445 25,000 1,452 Climbing Los Angeles Center
Tue 01:09:59 PM 34.5203 -118.4408 309° West 396 456 25,800 1,161 Climbing Los Angeles Center
Tue 01:11:01 PM 34.5919 -118.5461 310° West 402 463 27,400 1,742 Climbing Los Angeles Center
Tue 01:12:03 PM 34.6642 -118.6556 309° West 413 475 29,400 2,112 Climbing Los Angeles Center
Tue 01:13:06 PM 34.7542 -118.7894 309° West 427 491 31,800 2,256 Climbing Los Angeles Center
Tue 01:14:08 PM 34.8381 -118.8906 315° West 429 494 34,100 1,984 Climbing Los Angeles Center
Tue 01:15:10 PM 34.9353 -118.9708 326° Northwest 419 482 35,900 1,694 Climbing Los Angeles Center
Tue 01:16:12 PM 35.0328 -119.0517 326° Northwest 425 489 37,600 1,500 Climbing Los Angeles Center
Tue 01:17:14 PM 35.1297 -119.1311 326° Northwest 422 486 39,000 1,161 Climbing Los Angeles Center
Tue 01:18:16 PM 35.2142 -119.2242 318° Northwest 430 495 40,000 484 Climbing Los Angeles Center
Tue 01:19:18 PM 35.2761 -119.3722 297° West 410 472 40,000  Level Los Angeles Center
Tue 01:20:20 PM 35.3283 -119.4919 298° West 402 463 40,000  Level Los Angeles Center
Tue 01:21:22 PM 35.3806 -119.6158 297° West 408 470 40,000  Level Los Angeles Center
Tue 01:21:45 PM 35.3981 -119.6628 295° West 407 468 40,000  Level Oakland Center
Tue 01:22:47 PM 35.4506 -119.7881 297° West 412 474 40,000  Level Oakland Center
Tue 01:23:48 PM 35.5031 -119.9133 297° West 415 478 40,000  Level Oakland Center
Tue 01:24:49 PM 35.5561 -120.0375 298° West 415 478 40,000  Level Oakland Center
Tue 01:25:51 PM 35.6183 -120.1869 297° West 416 479 40,000  Level Oakland Center
Tue 01:26:52 PM 35.6686 -120.3114 296° West 414 476 40,000  Level Oakland Center
Tue 01:27:53 PM 35.7219 -120.4328 298° West 411 473 40,000 -244 Level Oakland Center
Tue 01:28:55 PM 35.7783 -120.5533 300° West 410 472 39,500 -1,463 Descending Oakland Center
Tue 01:29:56 PM 35.8558 -120.6578 312° West 419 482 37,000 -2,508 Descending Oakland Center
Tue 01:30:57 PM 35.9361 -120.7581 315° West 414 476 34,400 -2,341 Descending Oakland Center
Tue 01:31:59 PM 36.0153 -120.8583 314° West 410 472 32,200 -2,341 Descending Oakland Center
Tue 01:33:00 PM 36.1069 -120.9733 315° West 394 453 29,600 -2,262 Descending Oakland Center
Tue 01:34:01 PM 36.1808 -121.0672 314° West 383 441 27,600 -1,967 Descending Oakland Center
Tue 01:35:02 PM 36.2539 -121.1578 315° West 373 429 25,600 -1,902 Descending Oakland Center
Tue 01:36:04 PM 36.3225 -121.2467 314° West 360 414 23,700 -1,951 Descending Oakland Center
Tue 01:37:05 PM 36.3894 -121.3308 315° West 346 398 21,600 -2,390 Descending Oakland Center
Tue 01:38:07 PM 36.4575 -121.4183 314° West 350 403 18,800 -2,146 Descending Oakland Center
Tue 01:39:08 PM 36.5483 -121.4572 341° North 340 391 17,200 -1,672 Descending Oakland Center
Tue 01:40:09 PM 36.6394 -121.4744 351° North 331 381 15,400 -1,756 Descending Oakland Center
Tue 01:41:11 PM 36.7264 -121.4944 350° North 319 367 13,600 -1,854 Descending Oakland Center
Tue 01:42:12 PM 36.8281 -121.5164 350° North 307 353 11,600 -1,707 Descending Oakland Center
Tue 01:43:14 PM 36.9031 -121.5333 350° North 301 346 10,100 -1,268 Descending Oakland Center
Tue 01:44:15 PM 36.9772 -121.5669 340° North 289 333 9,000 -1,377 Descending Oakland Center
Tue 01:45:16 PM 37.0400 -121.6217 325° Northwest 278 320 7,300 -1,707 Descending Oakland Center
Tue 01:46:18 PM 37.1044 -121.6683 330° Northwest 270 311 5,500 -1,643 Descending Oakland Center
Tue 01:46:40 PM 37.1333 -121.7000 319° Northwest 257 296 5,000 -590 Descending Northern Cal TRACON
Tue 01:47:19 PM 37.1736 -121.7211 337° Northwest 255 293 4,900 -653 Descending Oakland Center
Tue 01:48:21 PM 37.2175 -121.7711 318° Northwest 232 267 3,900 -1,073 Descending Oakland Center
Tue 01:49:22 PM 37.2581 -121.8178 318° Northwest 213 245 2,700 -1,131 Descending Oakland Center
Tue 01:50:23 PM 37.2964 -121.8581 320° Northwest 196 226 1,600 -927 Descending Oakland Center
Tue 01:51:25 PM 37.3253 -121.8914 317° Northwest 164 189 800 -732 Descending Oakland Center
Tue 01:52:26 PM 37.3522 -121.9197 320° Northwest 140 161 100 -689 Descending Oakland Center
Tue 01:54:00 PM 37.3500 -121.9167 North  Level FlightAware Approximate
Tue 02:01:00 PM 37.3627 -121.9291 North  Level Estimated

Login

Don't have an account? Register now (free) for customized features, flight alerts, and more!